Time;durP1;ratioP1;P1;durP2;ratioP2;P2;SDS_P1;SDS_P2;PMS_P1;PMS_P2;Temp;Humidity;BMP_temperature;BMP_pressure;BME280_temperature;BME280_humidity;BME280_pressure;Samples;Min_cycle;Max_cycle;Signal;HPM_P1;HPM_P2
2023/03/30 00:00:12;;;;;;;6.85;4.00;;;;;;;;;;5035373;28;20045;-92
2023/03/30 00:02:42;;;;;;;1.67;1.58;;;;;;;;;;5036162;28;20049;-91
2023/03/30 00:05:09;;;;;;;2.80;2.70;;;;;;;;;;5036139;28;20053;-91
2023/03/30 00:07:37;;;;;;;12.45;11.95;;;;;;;;;;5036310;28;20420;-91
2023/03/30 00:10:05;;;;;;;4.75;4.55;;;;;;;;;;5036104;28;20092;-94
2023/03/30 00:12:31;;;;;;;6.25;5.93;;;;;;;;;;5036020;28;20063;-93
2023/03/30 00:14:58;;;;;;;2.58;2.47;;;;;;;;;;5035760;28;20547;-94
2023/03/30 00:17:24;;;;;;;5.07;4.88;;;;;;;;;;5035258;28;20041;-93
2023/03/30 00:19:52;;;;;;;3.90;3.70;;;;;;;;;;5036249;28;20059;-93
2023/03/30 00:22:19;;;;;;;5.13;4.90;;;;;;;;;;5036802;28;20049;-94
2023/03/30 00:24:45;;;;;;;4.30;4.10;;;;;;;;;;5036605;28;20461;-92
2023/03/30 00:27:12;;;;;;;3.13;3.03;;;;;;;;;;5036487;28;20092;-95
2023/03/30 00:29:38;;;;;;;2.10;2.00;;;;;;;;;;5035455;28;20046;-91
2023/03/30 00:32:05;;;;;;;2.78;2.67;;;;;;;;;;5035712;28;20107;-91
2023/03/30 00:34:31;;;;;;;3.42;3.20;;;;;;;;;;5031081;28;20053;-93
2023/03/30 00:37:00;;;;;;;3.70;3.58;;;;;;;;;;5035795;28;20465;-94
2023/03/30 00:39:26;;;;;;;4.28;3.97;;;;;;;;;;5036075;28;20132;-92
2023/03/30 00:41:53;;;;;;;2.22;2.13;;;;;;;;;;5035687;28;20049;-93
2023/03/30 00:44:38;;;;;;;2.83;2.72;;;;;;;;;;5035386;28;20055;-93
2023/03/30 00:47:04;;;;;;;2.15;2.05;;;;;;;;;;5035389;28;20049;-92
2023/03/30 00:49:33;;;;;;;3.75;3.63;;;;;;;;;;5034900;28;20056;-92
2023/03/30 00:52:02;;;;;;;2.95;2.85;;;;;;;;;;5034365;28;20464;-91
2023/03/30 00:54:28;;;;;;;4.85;4.45;;;;;;;;;;5034737;28;20049;-91
2023/03/30 00:56:55;;;;;;;4.07;3.88;;;;;;;;;;5034832;28;20041;-91
2023/03/30 00:59:21;;;;;;;5.30;5.05;;;;;;;;;;5034960;28;20045;-91
2023/03/30 01:01:49;;;;;;;4.65;4.30;;;;;;;;;;5034854;28;20049;-91
2023/03/30 01:04:17;;;;;;;3.17;2.97;;;;;;;;;;5034828;28;20143;-91
2023/03/30 01:06:45;;;;;;;3.17;3.08;;;;;;;;;;5035023;28;20045;-90
2023/03/30 01:09:14;;;;;;;4.53;4.20;;;;;;;;;;5034106;28;20136;-90
2023/03/30 01:11:40;;;;;;;3.78;3.58;;;;;;;;;;5034728;28;20042;-91
2023/03/30 01:14:08;;;;;;;8.75;8.35;;;;;;;;;;5034897;28;20049;-90
2023/03/30 01:16:38;;;;;;;6.07;5.65;;;;;;;;;;5034462;28;20049;-91
2023/03/30 01:19:17;;;;;;;3.47;3.28;;;;;;;;;;5034288;28;20053;-91
2023/03/30 01:21:58;;;;;;;5.70;5.40;;;;;;;;;;5034348;28;20136;-91
2023/03/30 01:24:47;;;;;;;2.55;2.45;;;;;;;;;;5034598;28;20128;-91
2023/03/30 01:27:23;;;;;;;4.13;3.92;;;;;;;;;;5034080;28;20497;-90
2023/03/30 01:30:00;;;;;;;3.20;3.10;;;;;;;;;;5034071;28;20056;-91
2023/03/30 01:32:48;;;;;;;5.47;5.18;;;;;;;;;;5034533;28;20107;-91
2023/03/30 01:35:31;;;;;;;2.03;1.75;;;;;;;;;;5017031;28;20054;-91
2023/03/30 01:38:13;;;;;;;3.65;3.45;;;;;;;;;;5034311;28;20104;-91
2023/03/30 01:40:43;;;;;;;3.20;3.08;;;;;;;;;;5033632;28;20553;-90
2023/03/30 01:43:14;;;;;;;4.22;3.97;;;;;;;;;;5033943;28;20049;-90
2023/03/30 01:45:40;;;;;;;;;;;;;;;;;;5034333;28;20135;-90
2023/03/30 01:48:09;;;;;;;3.95;3.80;;;;;;;;;;5033725;28;19983;-92
2023/03/30 01:50:39;;;;;;;1.92;1.83;;;;;;;;;;5033853;28;20489;-91
2023/03/30 01:53:09;;;;;;;3.22;3.05;;;;;;;;;;5034108;28;20053;-91
2023/03/30 01:55:37;;;;;;;2.28;2.08;;;;;;;;;;5034347;28;20049;-91
2023/03/30 01:58:06;;;;;;;2.97;2.88;;;;;;;;;;5033636;28;20099;-91
2023/03/30 02:00:35;;;;;;;5.32;5.13;;;;;;;;;;5014290;28;20468;-91
2023/03/30 02:03:05;;;;;;;7.10;2.97;;;;;;;;;;5014459;28;20046;-90
2023/03/30 02:05:32;;;;;;;3.70;3.47;;;;;;;;;;5014676;28;20096;-90
2023/03/30 02:08:03;;;;;;;5.50;4.22;;;;;;;;;;5018027;28;20046;-90
2023/03/30 02:10:32;;;;;;;4.55;4.25;;;;;;;;;;5017943;28;20116;-90
2023/03/30 02:12:59;;;;;;;2.25;2.15;;;;;;;;;;5018127;28;20104;-90
2023/03/30 02:15:30;;;;;;;3.65;3.50;;;;;;;;;;5026201;28;20520;-90
2023/03/30 02:17:56;;;;;;;3.47;2.33;;;;;;;;;;5037932;28;20095;-91
2023/03/30 02:20:23;;;;;;;4.60;4.40;;;;;;;;;;5037769;28;20057;-90
2023/03/30 02:22:50;;;;;;;2.97;2.78;;;;;;;;;;5037862;28;20049;-90
2023/03/30 02:25:16;;;;;;;3.67;3.47;;;;;;;;;;5037776;28;20132;-90
2023/03/30 02:27:43;;;;;;;3.42;3.22;;;;;;;;;;5037314;28;20049;-90
2023/03/30 02:30:10;;;;;;;3.65;3.45;;;;;;;;;;5037665;28;20053;-91
2023/03/30 02:32:41;;;;;;;1.55;1.45;;;;;;;;;;5037700;28;20115;-91
2023/03/30 02:35:17;;;;;;;2.60;2.05;;;;;;;;;;5037775;28;20045;-90
2023/03/30 02:37:58;;;;;;;2.08;1.98;;;;;;;;;;5037322;28;20137;-90
2023/03/30 02:40:31;;;;;;;2.35;2.25;;;;;;;;;;5037444;28;20072;-90
2023/03/30 02:43:05;;;;;;;2.22;2.13;;;;;;;;;;5037117;28;20045;-92
2023/03/30 02:45:38;;;;;;;7.03;3.10;;;;;;;;;;5037585;28;20057;-92
2023/03/30 02:48:16;;;;;;;5.72;5.53;;;;;;;;;;5036901;28;20456;-90
2023/03/30 02:50:45;;;;;;;2.70;2.60;;;;;;;;;;5036897;28;20053;-92
2023/03/30 02:53:15;;;;;;;2.65;2.47;;;;;;;;;;5037353;28;20560;-92
2023/03/30 02:55:45;;;;;;;3.65;3.50;;;;;;;;;;5037264;28;20045;-92
2023/03/30 02:58:15;;;;;;;3.42;3.22;;;;;;;;;;5037356;28;20080;-91
2023/03/30 03:00:43;;;;;;;1.88;1.77;;;;;;;;;;5037757;28;20049;-91
2023/03/30 03:03:15;;;;;;;2.55;2.45;;;;;;;;;;5037487;28;20050;-91
2023/03/30 03:05:43;;;;;;;2.08;1.98;;;;;;;;;;5037130;28;20144;-91
2023/03/30 03:08:12;;;;;;;2.55;2.45;;;;;;;;;;5036804;28;20132;-91
2023/03/30 03:10:39;;;;;;;2.78;2.65;;;;;;;;;;5036948;28;20103;-91
2023/03/30 03:13:07;;;;;;;3.55;3.35;;;;;;;;;;5036813;28;20060;-91
2023/03/30 03:15:34;;;;;;;2.88;2.78;;;;;;;;;;5036975;28;20132;-92
2023/03/30 03:18:00;;;;;;;7.75;3.05;;;;;;;;;;5036931;28;20056;-91
2023/03/30 03:20:29;;;;;;;4.43;3.17;;;;;;;;;;5037097;28;20119;-90
2023/03/30 03:22:56;;;;;;;2.17;2.08;;;;;;;;;;5036461;28;20049;-91
2023/03/30 03:25:22;;;;;;;3.78;3.58;;;;;;;;;;5036949;28;20107;-91
2023/03/30 03:27:49;;;;;;;3.33;3.13;;;;;;;;;;5036461;28;20107;-90
2023/03/30 03:30:15;;;;;;;3.17;2.97;;;;;;;;;;5036671;28;20045;-91
2023/03/30 03:32:42;;;;;;;5.75;5.45;;;;;;;;;;5037025;28;20049;-91
2023/03/30 03:35:09;;;;;;;3.00;2.90;;;;;;;;;;5036594;28;20054;-90
2023/03/30 03:37:37;;;;;;;3.92;3.70;;;;;;;;;;5036247;28;20091;-90
2023/03/30 03:40:05;;;;;;;3.17;3.00;;;;;;;;;;5036186;28;20049;-90
2023/03/30 03:42:31;;;;;;;2.78;2.67;;;;;;;;;;5036409;28;20053;-90
2023/03/30 03:44:58;;;;;;;3.42;2.53;;;;;;;;;;5036474;28;20050;-90
2023/03/30 03:47:24;;;;;;;3.05;2.90;;;;;;;;;;5036627;28;20489;-90
2023/03/30 03:49:51;;;;;;;2.90;2.78;;;;;;;;;;5036452;28;20551;-91
2023/03/30 03:52:17;;;;;;;2.70;2.60;;;;;;;;;;5036259;28;20049;-90
2023/03/30 03:54:45;;;;;;;2.33;2.22;;;;;;;;;;5036511;28;20563;-90
2023/03/30 03:57:12;;;;;;;3.22;3.13;;;;;;;;;;5036125;28;20542;-90
2023/03/30 03:59:38;;;;;;;3.58;3.45;;;;;;;;;;5029889;28;20053;-91
2023/03/30 04:02:05;;;;;;;2.50;2.33;;;;;;;;;;5036263;28;20053;-90
2023/03/30 04:04:31;;;;;;;3.80;3.67;;;;;;;;;;5035704;28;20104;-90
2023/03/30 04:06:58;;;;;;;3.58;3.42;;;;;;;;;;5035948;28;20054;-91
2023/03/30 04:09:25;;;;;;;3.40;3.10;;;;;;;;;;5035946;28;20052;-90
2023/03/30 04:11:53;;;;;;;2.28;2.10;;;;;;;;;;5035517;28;20080;-89
2023/03/30 04:14:19;;;;;;;1.92;1.83;;;;;;;;;;5035522;28;20493;-90
2023/03/30 04:16:47;;;;;;;1.88;1.77;;;;;;;;;;5035925;28;20057;-90
2023/03/30 04:19:14;;;;;;;2.72;2.53;;;;;;;;;;5035884;28;20061;-90
2023/03/30 04:21:45;;;;;;;1.25;1.25;;;;;;;;;;5036220;28;20053;-90
2023/03/30 04:24:12;;;;;;;;;;;;;;;;;;5036685;28;20073;-90
2023/03/30 04:26:40;;;;;;;1.92;1.83;;;;;;;;;;5035963;28;19921;-91
2023/03/30 04:29:08;;;;;;;2.28;2.08;;;;;;;;;;5035896;28;20073;-91
2023/03/30 04:31:36;;;;;;;1.58;1.48;;;;;;;;;;5036530;28;20050;-90
2023/03/30 04:34:03;;;;;;;2.22;2.13;;;;;;;;;;5036143;28;20075;-91
2023/03/30 04:36:30;;;;;;;2.30;2.20;;;;;;;;;;5036496;28;20068;-90
2023/03/30 04:39:00;;;;;;;2.55;2.45;;;;;;;;;;5040693;28;20068;-90
2023/03/30 04:41:32;;;;;;;2.28;2.17;;;;;;;;;;5046900;28;20041;-90
2023/03/30 04:43:58;;;;;;;2.20;2.10;;;;;;;;;;5047148;28;20046;-90
2023/03/30 04:46:26;;;;;;;3.05;2.78;;;;;;;;;;5045909;28;20045;-90
2023/03/30 04:48:53;;;;;;;2.28;2.17;;;;;;;;;;5045936;28;20072;-92
2023/03/30 04:51:19;;;;;;;1.98;1.88;;;;;;;;;;5040515;28;20045;-91
2023/03/30 04:53:46;;;;;;;2.78;1.88;;;;;;;;;;5036180;28;20045;-90
2023/03/30 04:56:12;;;;;;;2.58;2.47;;;;;;;;;;5036452;28;20050;-90
2023/03/30 04:58:39;;;;;;;1.92;1.83;;;;;;;;;;5035845;28;20095;-90
2023/03/30 05:01:05;;;;;;;3.72;3.58;;;;;;;;;;5035353;28;20401;-90
2023/03/30 05:03:33;;;;;;;2.92;2.72;;;;;;;;;;5035995;28;20111;-90
2023/03/30 05:06:00;;;;;;;3.03;2.92;;;;;;;;;;5035889;28;20091;-90
2023/03/30 05:08:26;;;;;;;2.67;2.58;;;;;;;;;;5035087;28;20123;-90
2023/03/30 05:10:53;;;;;;;3.08;2.88;;;;;;;;;;5034489;28;20072;-90
2023/03/30 05:13:19;;;;;;;1.88;1.77;;;;;;;;;;5034346;28;20055;-91
2023/03/30 05:15:52;;;;;;;3.05;2.95;;;;;;;;;;5034808;28;20045;-88
2023/03/30 05:18:19;;;;;;;2.75;2.55;;;;;;;;;;5034214;28;20053;-88
2023/03/30 05:20:47;;;;;;;3.30;3.15;;;;;;;;;;5032485;28;20064;-90
2023/03/30 05:23:13;;;;;;;3.83;3.63;;;;;;;;;;5034435;28;20061;-90
2023/03/30 05:25:42;;;;;;;3.75;3.58;;;;;;;;;;5034314;28;20049;-89
2023/03/30 05:28:09;;;;;;;3.22;3.13;;;;;;;;;;5034475;28;20081;-90
2023/03/30 05:30:35;;;;;;;3.38;3.28;;;;;;;;;;5034227;28;20045;-91
2023/03/30 05:33:02;;;;;;;3.13;2.92;;;;;;;;;;5034109;28;20099;-90
2023/03/30 05:35:29;;;;;;;2.25;2.15;;;;;;;;;;5030639;28;20045;-91
2023/03/30 05:37:57;;;;;;;2.45;2.35;;;;;;;;;;5034274;28;20103;-92
2023/03/30 05:40:24;;;;;;;3.70;3.50;;;;;;;;;;5033161;28;20076;-92
2023/03/30 05:42:50;;;;;;;3.30;3.10;;;;;;;;;;5033662;28;20141;-91
2023/03/30 05:45:17;;;;;;;1.77;1.70;;;;;;;;;;5034175;28;20053;-91
2023/03/30 05:47:43;;;;;;;4.07;3.88;;;;;;;;;;5033981;28;20237;-90
2023/03/30 05:50:10;;;;;;;3.25;3.13;;;;;;;;;;5034305;28;20060;-91
2023/03/30 05:52:37;;;;;;;3.97;3.65;;;;;;;;;;5033998;28;20100;-92
2023/03/30 05:55:05;;;;;;;3.58;3.42;;;;;;;;;;5033982;28;20057;-91
2023/03/30 05:57:32;;;;;;;3.38;3.28;;;;;;;;;;5033930;28;20081;-91
2023/03/30 05:59:59;;;;;;;3.40;3.20;;;;;;;;;;5034166;28;20093;-92
2023/03/30 06:02:26;;;;;;;4.28;4.07;;;;;;;;;;5033461;28;20046;-91
2023/03/30 06:04:52;;;;;;;11.30;10.80;;;;;;;;;;5033298;28;20387;-91
2023/03/30 06:07:19;;;;;;;3.67;3.40;;;;;;;;;;5033907;28;20049;-91
2023/03/30 06:09:46;;;;;;;3.88;3.65;;;;;;;;;;5033487;28;20046;-90
2023/03/30 06:12:14;;;;;;;3.47;3.38;;;;;;;;;;5033677;28;20103;-91
2023/03/30 06:14:41;;;;;;;3.25;3.05;;;;;;;;;;5034117;28;20049;-91
2023/03/30 06:17:10;;;;;;;3.25;3.13;;;;;;;;;;5033784;28;20100;-91
2023/03/30 06:19:37;;;;;;;3.30;3.15;;;;;;;;;;5033576;28;20078;-91
2023/03/30 06:22:04;;;;;;;4.97;4.13;;;;;;;;;;5033534;28;20636;-90
2023/03/30 06:24:31;;;;;;;4.45;4.25;;;;;;;;;;5033780;28;20045;-91
2023/03/30 06:26:57;;;;;;;3.35;3.15;;;;;;;;;;5033975;28;20086;-91
2023/03/30 06:29:26;;;;;;;3.63;3.42;;;;;;;;;;5033740;28;20128;-92
2023/03/30 06:31:52;;;;;;;4.30;4.10;;;;;;;;;;5033661;28;20052;-91
2023/03/30 06:34:19;;;;;;;8.05;7.75;;;;;;;;;;5033207;28;20460;-92
2023/03/30 06:36:45;;;;;;;4.07;3.88;;;;;;;;;;5033176;28;20455;-91
2023/03/30 06:39:12;;;;;;;4.25;4.05;;;;;;;;;;5033044;28;20046;-90
2023/03/30 06:41:38;;;;;;;6.05;5.75;;;;;;;;;;5034325;28;20049;-92
2023/03/30 06:44:05;;;;;;;3.47;3.35;;;;;;;;;;5033945;28;20135;-92
2023/03/30 06:46:33;;;;;;;3.80;3.60;;;;;;;;;;5033780;28;20084;-91
2023/03/30 06:49:00;;;;;;;5.68;5.40;;;;;;;;;;5032612;28;20132;-91
2023/03/30 06:51:26;;;;;;;6.78;6.47;;;;;;;;;;5034004;28;20053;-91
2023/03/30 06:53:53;;;;;;;3.90;3.75;;;;;;;;;;5036816;28;20145;-91
2023/03/30 06:56:19;;;;;;;4.55;4.35;;;;;;;;;;5037086;28;20053;-91
2023/03/30 06:58:46;;;;;;;5.40;5.00;;;;;;;;;;5037098;28;20049;-91
2023/03/30 07:01:14;;;;;;;6.53;6.28;;;;;;;;;;5036660;28;20445;-91
2023/03/30 07:03:42;;;;;;;4.43;4.10;;;;;;;;;;5036614;28;20128;-91
2023/03/30 07:06:09;;;;;;;3.92;3.72;;;;;;;;;;5036575;28;20103;-90
2023/03/30 07:08:36;;;;;;;4.32;4.07;;;;;;;;;;5036533;28;20049;-90
2023/03/30 07:11:03;;;;;;;8.25;5.55;;;;;;;;;;5036630;28;20504;-91
2023/03/30 07:13:30;;;;;;;4.03;3.83;;;;;;;;;;5036942;28;20489;-91
2023/03/30 07:15:57;;;;;;;3.70;3.50;;;;;;;;;;5037061;28;20448;-91
2023/03/30 07:18:24;;;;;;;4.82;4.63;;;;;;;;;;5036960;28;20084;-91
2023/03/30 07:20:52;;;;;;;6.20;5.80;;;;;;;;;;5039655;28;20057;-90
2023/03/30 07:23:18;;;;;;;4.97;4.78;;;;;;;;;;5039767;28;20075;-91
2023/03/30 07:25:45;;;;;;;5.45;5.10;;;;;;;;;;5036593;28;20494;-91
2023/03/30 07:28:12;;;;;;;5.57;5.28;;;;;;;;;;5036775;28;20049;-91
2023/03/30 07:30:39;;;;;;;5.93;5.65;;;;;;;;;;5037557;28;20057;-91
2023/03/30 07:33:06;;;;;;;8.23;7.85;;;;;;;;;;5037042;28;20448;-92
2023/03/30 07:35:32;;;;;;;4.07;3.88;;;;;;;;;;5037154;28;20088;-93
2023/03/30 07:38:00;;;;;;;5.30;5.10;;;;;;;;;;5036916;28;20481;-92
2023/03/30 07:40:27;;;;;;;5.78;5.47;;;;;;;;;;5036290;28;20053;-91
2023/03/30 07:42:53;;;;;;;4.45;4.25;;;;;;;;;;5036650;28;20049;-91
2023/03/30 07:45:20;;;;;;;7.85;7.55;;;;;;;;;;5036532;28;20049;-91
2023/03/30 07:47:46;;;;;;;7.22;6.82;;;;;;;;;;5036029;28;20053;-91
2023/03/30 07:50:13;;;;;;;5.68;5.38;;;;;;;;;;5017010;28;20054;-92
2023/03/30 07:52:39;;;;;;;7.13;6.72;;;;;;;;;;5016778;28;20050;-91
2023/03/30 07:55:08;;;;;;;5.03;4.82;;;;;;;;;;5030607;28;20050;-92
2023/03/30 07:57:41;;;;;;;5.57;5.22;;;;;;;;;;5036687;28;20053;-94
2023/03/30 08:00:09;;;;;;;7.85;7.32;;;;;;;;;;5036687;28;20096;-92
2023/03/30 08:02:36;;;;;;;4.60;4.40;;;;;;;;;;5035687;28;20045;-93
2023/03/30 08:05:03;;;;;;;5.13;4.18;;;;;;;;;;5035096;28;20054;-92
2023/03/30 08:07:29;;;;;;;4.95;4.75;;;;;;;;;;5036169;28;20111;-93
2023/03/30 08:09:56;;;;;;;4.97;4.78;;;;;;;;;;5036627;28;20050;-93
2023/03/30 08:12:24;;;;;;;4.20;4.00;;;;;;;;;;5035848;28;20417;-93
2023/03/30 08:14:51;;;;;;;6.50;6.20;;;;;;;;;;5035725;28;20049;-93
2023/03/30 08:17:18;;;;;;;13.25;12.68;;;;;;;;;;5035603;28;20408;-93
2023/03/30 08:19:44;;;;;;;4.82;4.63;;;;;;;;;;5043642;28;20108;-92
2023/03/30 08:22:11;;;;;;;7.88;7.13;;;;;;;;;;5057693;28;20080;-93
2023/03/30 08:24:38;;;;;;;7.55;7.25;;;;;;;;;;5054712;28;20053;-94
2023/03/30 08:27:04;;;;;;;5.35;5.05;;;;;;;;;;5038306;28;20045;-94
2023/03/30 08:29:32;;;;;;;6.88;6.57;;;;;;;;;;5041655;28;20050;-93
2023/03/30 08:31:59;;;;;;;7.07;6.68;;;;;;;;;;5040376;28;20046;-95
2023/03/30 08:34:26;;;;;;;5.28;5.05;;;;;;;;;;5040728;28;20108;-92
2023/03/30 08:36:53;;;;;;;6.40;6.03;;;;;;;;;;5037838;28;20050;-92
2023/03/30 08:39:20;;;;;;;5.28;4.88;;;;;;;;;;5035598;28;20049;-93
2023/03/30 08:41:53;;;;;;;5.32;5.05;;;;;;;;;;5038708;28;20084;-93
2023/03/30 08:44:26;;;;;;;5.72;5.47;;;;;;;;;;5037106;28;20088;-93
2023/03/30 08:46:55;;;;;;;4.93;4.72;;;;;;;;;;5035116;28;20547;-93
2023/03/30 08:49:22;;;;;;;5.35;5.15;;;;;;;;;;5037265;28;20091;-92
2023/03/30 08:51:50;;;;;;;6.45;6.15;;;;;;;;;;5037682;28;20076;-94
2023/03/30 08:54:18;;;;;;;7.60;7.28;;;;;;;;;;5034953;28;20103;-92
2023/03/30 08:56:48;;;;;;;8.82;8.38;;;;;;;;;;5034800;28;20099;-93
2023/03/30 08:59:23;;;;;;;6.68;6.38;;;;;;;;;;5040128;28;20114;-94
2023/03/30 09:01:51;;;;;;;6.50;6.20;;;;;;;;;;5036129;28;20056;-94
2023/03/30 09:04:25;;;;;;;7.53;7.13;;;;;;;;;;5037141;28;20100;-95
2023/03/30 09:06:53;;;;;;;8.30;7.82;;;;;;;;;;5039672;28;20077;-94
2023/03/30 09:12:06;;;;;;;12.82;12.30;;;;;;;;;;5039791;28;20134;-94
2023/03/30 09:14:35;;;;;;;9.10;8.70;;;;;;;;;;5037662;28;20053;-95
2023/03/30 09:17:06;;;;;;;8.23;7.82;;;;;;;;;;5038776;28;20056;-95
2023/03/30 09:19:35;;;;;;;8.07;7.70;;;;;;;;;;5041461;28;20107;-95
2023/03/30 09:22:05;;;;;;;5.50;5.28;;;;;;;;;;5039646;28;20077;-95
2023/03/30 09:24:32;;;;;;;10.20;9.77;;;;;;;;;;5037229;28;20140;-93
2023/03/30 09:27:00;;;;;;;8.30;7.90;;;;;;;;;;5035590;28;20053;-95
2023/03/30 09:29:28;;;;;;;10.75;9.93;;;;;;;;;;5044178;28;20061;-95
2023/03/30 09:31:58;;;;;;;7.65;7.15;;;;;;;;;;5043155;28;20041;-94
2023/03/30 09:34:26;;;;;;;18.65;17.88;;;;;;;;;;5038951;28;20390;-94
2023/03/30 09:36:56;;;;;;;8.02;7.72;;;;;;;;;;5039582;28;20057;-94
2023/03/30 09:39:24;;;;;;;7.80;7.45;;;;;;;;;;5038652;28;20177;-94
2023/03/30 09:41:59;;;;;;;7.95;7.65;;;;;;;;;;5039511;28;20050;-93
2023/03/30 09:44:30;;;;;;;6.82;6.53;;;;;;;;;;5053842;28;20077;-94
2023/03/30 09:46:58;;;;;;;8.07;7.63;;;;;;;;;;5057611;28;20496;-93
2023/03/30 09:49:27;;;;;;;8.43;8.02;;;;;;;;;;5056053;28;20049;-94
2023/03/30 09:51:56;;;;;;;8.98;8.48;;;;;;;;;;5057676;28;20488;-93
2023/03/30 09:54:23;;;;;;;8.15;7.82;;;;;;;;;;5046099;28;20099;-94
2023/03/30 09:56:55;;;;;;;8.93;8.52;;;;;;;;;;5036047;28;20073;-95
2023/03/30 09:59:28;;;;;;;7.15;6.85;;;;;;;;;;5034486;28;20887;-95
2023/03/30 10:02:08;;;;;;;7.90;7.50;;;;;;;;;;5037176;28;20045;-94
2023/03/30 10:04:52;;;;;;;7.78;7.47;;;;;;;;;;5037225;28;20474;-95
2023/03/30 10:07:22;;;;;;;9.18;8.80;;;;;;;;;;5037727;28;20136;-95
2023/03/30 10:09:48;;;;;;;7.57;7.18;;;;;;;;;;5038449;28;20584;-94
2023/03/30 10:12:15;;;;;;;8.90;8.50;;;;;;;;;;5038000;28;20045;-94
2023/03/30 10:14:42;;;;;;;9.40;9.00;;;;;;;;;;5039937;28;20061;-93
2023/03/30 10:17:18;;;;;;;7.13;6.82;;;;;;;;;;5039313;28;20046;-94
2023/03/30 10:19:45;;;;;;;7.00;6.70;;;;;;;;;;5037885;28;20057;-94
2023/03/30 10:22:15;;;;;;;7.97;7.57;;;;;;;;;;5040494;28;20127;-93
2023/03/30 10:24:50;;;;;;;5.07;4.88;;;;;;;;;;5039812;28;20053;-94
2023/03/30 10:27:17;;;;;;;8.15;7.85;;;;;;;;;;5040516;28;20087;-95
2023/03/30 10:29:44;;;;;;;7.80;7.40;;;;;;;;;;5041070;28;20053;-95
2023/03/30 10:32:14;;;;;;;9.20;8.82;;;;;;;;;;5044751;28;20049;-94
2023/03/30 10:34:42;;;;;;;9.02;8.60;;;;;;;;;;5042485;28;20045;-94
2023/03/30 10:37:10;;;;;;;6.93;6.60;;;;;;;;;;5040054;28;20053;-94
2023/03/30 10:39:39;;;;;;;7.93;7.63;;;;;;;;;;5039439;28;20540;-95
2023/03/30 10:42:08;;;;;;;7.97;7.40;;;;;;;;;;5039188;28;20049;-94
2023/03/30 10:44:36;;;;;;;8.85;8.55;;;;;;;;;;5039378;28;20053;-94
2023/03/30 10:47:08;;;;;;;8.32;8.00;;;;;;;;;;5039390;28;20099;-94
2023/03/30 10:49:43;;;;;;;8.05;7.75;;;;;;;;;;5039800;28;20053;-95
2023/03/30 10:52:13;;;;;;;8.00;7.60;;;;;;;;;;5040397;28;20489;-94
2023/03/30 10:54:40;;;;;;;7.00;6.60;;;;;;;;;;5039594;28;20049;-94
2023/03/30 10:57:11;;;;;;;6.55;6.25;;;;;;;;;;5038801;28;20061;-94
2023/03/30 10:59:46;;;;;;;13.82;13.20;;;;;;;;;;5038267;28;20054;-94
2023/03/30 11:02:21;;;;;;;17.80;17.10;;;;;;;;;;5040278;28;20405;-94
2023/03/30 11:04:50;;;;;;;8.57;8.07;;;;;;;;;;5039690;28;20053;-95
2023/03/30 11:07:18;;;;;;;7.10;6.80;;;;;;;;;;5038628;28;20049;-94
2023/03/30 11:09:48;;;;;;;8.35;7.95;;;;;;;;;;5039286;28;20053;-94
2023/03/30 11:12:19;;;;;;;8.27;7.95;;;;;;;;;;5038759;28;20049;-93
2023/03/30 11:14:48;;;;;;;6.30;6.00;;;;;;;;;;5039270;28;20053;-92
2023/03/30 11:17:20;;;;;;;6.80;6.30;;;;;;;;;;5040523;28;20055;-93
2023/03/30 11:19:48;;;;;;;7.03;6.72;;;;;;;;;;5039940;28;20494;-95
2023/03/30 11:22:20;;;;;;;5.38;5.07;;;;;;;;;;5040086;28;20072;-94
2023/03/30 11:24:49;;;;;;;8.93;8.57;;;;;;;;;;5044103;28;20099;-95
2023/03/30 11:27:18;;;;;;;8.52;8.13;;;;;;;;;;5039679;28;20049;-93
2023/03/30 11:29:47;;;;;;;8.73;8.38;;;;;;;;;;5038686;28;20049;-94
2023/03/30 11:32:21;;;;;;;6.68;6.38;;;;;;;;;;5040140;28;20128;-95
2023/03/30 11:34:57;;;;;;;16.48;15.82;;;;;;;;;;5042775;28;20441;-94
2023/03/30 11:37:28;;;;;;;8.98;8.63;;;;;;;;;;5039423;28;20050;-95
2023/03/30 11:39:57;;;;;;;6.95;6.65;;;;;;;;;;5037919;28;20053;-95
2023/03/30 11:42:27;;;;;;;9.48;9.07;;;;;;;;;;5039992;28;20056;-95
2023/03/30 11:44:53;;;;;;;7.47;7.18;;;;;;;;;;5039550;28;20053;-94
2023/03/30 11:47:37;;;;;;;7.70;7.40;;;;;;;;;;5038929;28;20080;-96
2023/03/30 11:50:19;;;;;;;6.40;6.10;;;;;;;;;;5037191;28;20060;-95
2023/03/30 11:52:51;;;;;;;6.78;6.45;;;;;;;;;;5033600;28;20064;-96
2023/03/30 11:55:35;;;;;;;7.90;7.60;;;;;;;;;;5040850;28;20052;-94
2023/03/30 11:58:09;;;;;;;9.07;8.68;;;;;;;;;;5040969;28;20063;-94
2023/03/30 12:00:41;;;;;;;15.70;15.10;;;;;;;;;;5043273;28;20460;-94
2023/03/30 12:03:14;;;;;;;6.68;6.38;;;;;;;;;;5038306;28;20482;-93
2023/03/30 12:05:44;;;;;;;8.68;8.18;;;;;;;;;;5040969;28;20096;-93
2023/03/30 12:08:19;;;;;;;11.98;11.45;;;;;;;;;;5043506;28;20045;-93
2023/03/30 12:10:48;;;;;;;9.57;9.18;;;;;;;;;;5039693;28;20050;-92
2023/03/30 12:13:18;;;;;;;11.65;11.23;;;;;;;;;;5035610;28;20493;-92
2023/03/30 12:15:47;;;;;;;10.68;10.27;;;;;;;;;;5036964;28;20486;-92
2023/03/30 12:18:24;;;;;;;12.45;11.93;;;;;;;;;;5037220;28;20112;-94
2023/03/30 12:20:53;;;;;;;12.45;11.88;;;;;;;;;;5037487;28;20045;-92
2023/03/30 12:23:30;;;;;;;18.65;17.92;;;;;;;;;;5037323;28;20460;-94
2023/03/30 12:26:08;;;;;;;11.10;10.60;;;;;;;;;;5037256;28;20107;-93
2023/03/30 12:28:46;;;;;;;12.88;12.35;;;;;;;;;;5040182;28;20056;-93
2023/03/30 12:31:13;;;;;;;12.48;11.98;;;;;;;;;;5045708;28;20049;-94
2023/03/30 12:33:45;;;;;;;10.77;10.18;;;;;;;;;;5048568;28;20107;-94
2023/03/30 12:36:24;;;;;;;8.00;7.70;;;;;;;;;;5045089;28;20727;-94
2023/03/30 12:38:51;;;;;;;11.90;11.30;;;;;;;;;;5036727;28;20068;-94
2023/03/30 12:41:19;;;;;;;9.50;9.10;;;;;;;;;;5036903;28;20482;-95
2023/03/30 12:44:05;;;;;;;10.55;10.13;;;;;;;;;;5043100;28;20559;-95
2023/03/30 12:46:36;;;;;;;10.27;9.80;;;;;;;;;;5038866;28;20053;-95
2023/03/30 12:49:10;;;;;;;11.80;11.02;;;;;;;;;;5038629;28;20052;-95
2023/03/30 12:51:48;;;;;;;11.18;10.77;;;;;;;;;;5037058;28;20053;-95
2023/03/30 12:54:30;;;;;;;21.70;20.90;;;;;;;;;;5039056;28;20410;-96
2023/03/30 12:56:58;;;;;;;8.48;7.88;;;;;;;;;;5036621;28;20103;-93
2023/03/30 12:59:35;;;;;;;9.07;8.57;;;;;;;;;;5035886;28;20041;-95
2023/03/30 13:02:15;;;;;;;8.95;8.55;;;;;;;;;;5034207;28;20079;-94
2023/03/30 13:04:45;;;;;;;16.85;16.23;;;;;;;;;;5035495;28;20440;-93
2023/03/30 13:07:15;;;;;;;14.25;13.55;;;;;;;;;;5034918;28;20083;-93
2023/03/30 13:09:53;;;;;;;13.23;12.70;;;;;;;;;;5035349;28;20548;-93
2023/03/30 13:12:37;;;;;;;12.35;11.75;;;;;;;;;;5034981;28;20081;-93
2023/03/30 13:15:20;;;;;;;12.52;11.90;;;;;;;;;;5036917;28;20045;-93
2023/03/30 13:17:57;;;;;;;12.73;12.23;;;;;;;;;;5036396;28;20055;-92
2023/03/30 13:20:28;;;;;;;14.32;13.73;;;;;;;;;;5038131;28;20085;-93
2023/03/30 13:29:41;;;;;;;13.93;13.35;;;;;;;;;;4996991;28;20096;-94
2023/03/30 13:41:52;;;;;;;14.68;14.13;;;;;;;;;;4898698;29;20070;-94
2023/03/30 13:50:57;;;;;;;12.80;12.18;;;;;;;;;;4879101;29;20040;-93
2023/03/30 14:02:50;;;;;;;12.73;12.13;;;;;;;;;;4823408;29;20058;-92
2023/03/30 14:26:58;;;;;;;13.10;12.60;;;;;;;;;;4819138;29;20054;-92
2023/03/30 14:29:29;;;;;;;11.90;11.40;;;;;;;;;;4825766;29;20058;-94
2023/03/30 14:31:56;;;;;;;14.50;13.82;;;;;;;;;;4882882;29;20136;-93
2023/03/30 14:34:25;;;;;;;13.93;13.35;;;;;;;;;;4933549;29;20056;-93
2023/03/30 14:36:51;;;;;;;16.80;16.20;;;;;;;;;;4935973;29;20048;-94
2023/03/30 14:39:19;;;;;;;12.77;12.25;;;;;;;;;;4949211;28;20054;-94
2023/03/30 14:41:45;;;;;;;13.32;12.75;;;;;;;;;;4996800;28;20050;-93
2023/03/30 14:44:13;;;;;;;16.52;15.77;;;;;;;;;;4985178;28;20051;-93
2023/03/30 14:46:41;;;;;;;18.27;17.50;;;;;;;;;;4981262;28;20058;-93
2023/03/30 14:49:08;;;;;;;14.52;13.93;;;;;;;;;;4981199;28;20058;-94
2023/03/30 14:51:36;;;;;;;16.95;16.30;;;;;;;;;;4980809;28;20491;-93
2023/03/30 14:54:04;;;;;;;14.40;13.82;;;;;;;;;;4980761;28;20047;-94
2023/03/30 14:56:30;;;;;;;13.05;12.52;;;;;;;;;;4994326;28;20049;-93
2023/03/30 14:58:58;;;;;;;16.63;15.82;;;;;;;;;;5034035;28;20045;-93
2023/03/30 15:01:29;;;;;;;15.02;14.43;;;;;;;;;;5040448;28;20076;-93
2023/03/30 15:03:56;;;;;;;14.52;13.63;;;;;;;;;;5042288;28;20060;-93
2023/03/30 15:06:24;;;;;;;15.10;14.48;;;;;;;;;;5042854;28;20041;-93
2023/03/30 15:08:51;;;;;;;17.38;16.58;;;;;;;;;;5041580;28;20493;-92
2023/03/30 15:11:20;;;;;;;13.10;12.60;;;;;;;;;;5043941;28;20050;-92
2023/03/30 15:13:47;;;;;;;16.10;15.40;;;;;;;;;;5047934;28;20052;-92
2023/03/30 15:16:15;;;;;;;12.18;11.68;;;;;;;;;;5043314;28;20045;-92
2023/03/30 15:18:43;;;;;;;18.90;18.20;;;;;;;;;;5050894;28;20053;-93
2023/03/30 15:21:12;;;;;;;13.23;12.73;;;;;;;;;;5051840;28;20064;-92
2023/03/30 15:23:40;;;;;;;13.13;12.63;;;;;;;;;;5056431;28;20045;-91
2023/03/30 15:26:10;;;;;;;11.77;11.27;;;;;;;;;;5057205;28;20563;-94
2023/03/30 15:28:46;;;;;;;11.60;11.10;;;;;;;;;;5057478;28;20053;-94
2023/03/30 15:31:13;;;;;;;11.52;11.00;;;;;;;;;;5056723;28;20107;-93
2023/03/30 15:33:41;;;;;;;16.08;15.10;;;;;;;;;;5055514;28;20060;-93
2023/03/30 15:36:12;;;;;;;15.80;15.20;;;;;;;;;;5056387;28;20053;-93
2023/03/30 15:38:44;;;;;;;13.75;13.15;;;;;;;;;;5056807;28;20588;-93
2023/03/30 15:41:14;;;;;;;13.77;13.27;;;;;;;;;;5056796;28;20059;-92
2023/03/30 15:43:52;;;;;;;12.77;12.15;;;;;;;;;;5056461;28;20079;-92
2023/03/30 15:46:18;;;;;;;10.25;9.73;;;;;;;;;;5056227;28;20088;-92